Time;durP1;ratioP1;P1;durP2;ratioP2;P2;SDS_P1;SDS_P2;PMS_P1;PMS_P2;Temp;Humidity;BMP_temperature;BMP_pressure;BME280_temperature;BME280_humidity;BME280_pressure;Samples;Min_cycle;Max_cycle;Signal;HPM_P1;HPM_P2
2022/05/02 00:01:03;;;;;;;10.27;9.97;;;12.20;99.90;;;;;;6205734;23;20192;-81
2022/05/02 00:03:33;;;;;;;10.00;9.70;;;12.10;99.90;;;;;;6214881;23;20293;-81
2022/05/02 00:06:02;;;;;;;10.60;10.30;;;12.10;99.90;;;;;;6209655;23;20203;-82
2022/05/02 00:08:31;;;;;;;10.30;10.00;;;12.10;99.90;;;;;;6202246;23;20192;-82
2022/05/02 00:11:09;;;;;;;10.37;10.07;;;12.00;99.90;;;;;;6201210;23;20223;-82
2022/05/02 00:13:39;;;;;;;10.30;10.00;;;12.00;99.90;;;;;;6201149;23;20196;-82
2022/05/02 00:16:08;;;;;;;10.30;10.00;;;12.00;99.90;;;;;;6200167;23;20250;-82
2022/05/02 00:18:38;;;;;;;10.20;9.90;;;11.90;99.90;;;;;;6199263;23;20195;-83
2022/05/02 00:21:07;;;;;;;10.20;9.90;;;11.90;99.90;;;;;;6199192;23;20196;-82
2022/05/02 00:23:36;;;;;;;10.40;10.10;;;11.90;99.90;;;;;;6200189;23;20191;-83
2022/05/02 00:28:53;;;;;;;10.47;10.17;;;11.90;99.90;;;;;;6195996;23;20246;-82
2022/05/02 00:31:22;;;;;;;10.40;10.10;;;11.90;99.90;;;;;;6198996;23;20259;-82
2022/05/02 00:33:52;;;;;;;10.53;10.23;;;11.90;99.90;;;;;;6199688;23;20254;-82
2022/05/02 00:36:21;;;;;;;10.30;10.00;;;11.90;99.90;;;;;;6199201;23;20211;-82
2022/05/02 00:38:51;;;;;;;10.00;9.70;;;11.90;99.90;;;;;;6199328;23;20192;-82
2022/05/02 00:44:08;;;;;;;10.30;10.00;;;11.90;99.90;;;;;;6197534;23;20230;-82
2022/05/02 00:46:38;;;;;;;10.53;10.23;;;11.90;99.90;;;;;;6199223;23;20210;-83
2022/05/02 00:49:06;;;;;;;10.70;10.40;;;11.90;99.90;;;;;;6198889;23;20200;-82
2022/05/02 00:51:35;;;;;;;10.50;10.20;;;11.80;99.90;;;;;;6208609;23;20203;-82
2022/05/02 00:54:05;;;;;;;10.60;10.30;;;11.80;99.90;;;;;;6202200;23;20204;-82
2022/05/02 00:56:34;;;;;;;10.63;10.33;;;11.70;99.90;;;;;;6192012;23;20302;-83
2022/05/02 00:59:04;;;;;;;10.60;10.30;;;11.70;99.90;;;;;;6198152;23;20207;-82
2022/05/02 01:01:34;;;;;;;10.70;10.40;;;11.60;99.90;;;;;;6196750;23;20200;-82
2022/05/02 01:04:03;;;;;;;10.67;10.37;;;11.60;99.90;;;;;;6197483;23;20200;-82
2022/05/02 01:09:22;;;;;;;10.40;10.10;;;11.60;99.90;;;;;;6198440;23;20195;-81
2022/05/02 01:11:51;;;;;;;10.70;10.40;;;11.60;99.90;;;;;;6199177;23;20188;-82
2022/05/02 01:14:19;;;;;;;10.40;10.10;;;11.60;99.90;;;;;;6199319;23;20211;-82
2022/05/02 01:16:47;;;;;;;10.83;10.53;;;11.60;99.90;;;;;;6199107;23;20262;-83
2022/05/02 01:19:17;;;;;;;10.77;10.47;;;11.60;99.90;;;;;;6200167;23;20202;-81
2022/05/02 01:21:47;;;;;;;10.40;10.10;;;11.60;99.90;;;;;;6200031;23;20250;-82
2022/05/02 01:24:18;;;;;;;10.73;10.43;;;11.60;99.90;;;;;;6199377;23;20657;-82
2022/05/02 01:26:46;;;;;;;10.77;10.47;;;11.50;99.90;;;;;;6199423;23;20222;-82
2022/05/02 01:29:15;;;;;;;10.70;10.40;;;11.50;99.90;;;;;;6198760;23;20196;-82
2022/05/02 01:31:45;;;;;;;10.53;10.23;;;11.50;99.90;;;;;;6200413;23;20211;-82
2022/05/02 01:34:14;;;;;;;10.70;10.40;;;11.50;99.90;;;;;;6200155;23;20202;-83
2022/05/02 01:36:45;;;;;;;10.93;10.63;;;11.40;99.90;;;;;;6198809;23;20222;-82
2022/05/02 01:39:14;;;;;;;10.80;10.50;;;11.30;99.90;;;;;;6199514;23;20192;-82
2022/05/02 01:41:44;;;;;;;10.70;10.40;;;11.30;99.90;;;;;;6198749;23;20204;-81
2022/05/02 01:44:14;;;;;;;10.80;10.50;;;11.30;99.90;;;;;;6199323;23;20195;-82
2022/05/02 01:46:42;;;;;;;10.70;10.40;;;11.20;99.90;;;;;;6201686;23;20196;-82
2022/05/02 01:49:12;;;;;;;10.80;10.50;;;11.20;99.90;;;;;;6202159;23;20340;-83
2022/05/02 01:51:42;;;;;;;10.90;10.60;;;11.20;99.90;;;;;;6199754;23;20210;-82
2022/05/02 01:54:11;;;;;;;10.80;10.50;;;11.20;99.90;;;;;;6199300;23;20212;-83
2022/05/02 01:56:48;;;;;;;10.97;10.67;;;11.20;99.90;;;;;;6197764;23;20203;-82
2022/05/02 01:59:20;;;;;;;11.00;10.70;;;11.10;99.90;;;;;;6198379;23;20191;-82
2022/05/02 02:01:48;;;;;;;11.20;10.90;;;11.10;99.90;;;;;;6198388;23;20200;-82
2022/05/02 02:07:05;;;;;;;10.70;10.40;;;11.10;99.90;;;;;;6199165;23;20208;-82
2022/05/02 02:09:34;;;;;;;10.70;10.40;;;11.10;99.90;;;;;;6198549;23;20199;-82
2022/05/02 02:12:14;;;;;;;10.50;10.20;;;11.10;99.90;;;;;;6198358;23;20255;-82
2022/05/02 02:14:42;;;;;;;10.33;10.03;;;11.10;99.90;;;;;;6199434;23;20187;-82
2022/05/02 02:17:11;;;;;;;10.50;10.20;;;11.10;99.90;;;;;;6197981;23;20207;-82
2022/05/02 02:19:39;;;;;;;10.47;10.17;;;11.10;99.90;;;;;;6198263;23;20192;-82
2022/05/02 02:22:18;;;;;;;10.30;10.00;;;11.10;99.90;;;;;;6198611;23;20203;-82
2022/05/02 02:24:48;;;;;;;10.40;10.10;;;11.10;99.90;;;;;;6198516;23;20227;-83
2022/05/02 02:27:26;;;;;;;10.60;10.30;;;11.10;99.90;;;;;;6198639;23;20199;-82
2022/05/02 02:29:57;;;;;;;10.30;10.00;;;11.10;99.90;;;;;;6199021;23;20199;-82
2022/05/02 02:32:25;;;;;;;10.40;10.10;;;11.10;99.90;;;;;;6203364;23;20207;-82
2022/05/02 02:34:55;;;;;;;10.20;9.90;;;11.10;99.90;;;;;;6203947;23;20234;-82
2022/05/02 02:37:22;;;;;;;10.10;9.80;;;11.10;99.90;;;;;;6204392;23;20199;-82
2022/05/02 02:39:54;;;;;;;10.40;10.10;;;11.10;99.90;;;;;;6203448;23;20271;-83
2022/05/02 02:42:26;;;;;;;10.30;10.00;;;11.00;99.90;;;;;;6200380;23;20183;-82
2022/05/02 02:45:02;;;;;;;10.30;10.00;;;10.90;99.90;;;;;;6200247;23;20192;-82
2022/05/02 02:47:31;;;;;;;10.40;10.10;;;10.80;99.90;;;;;;6200123;23;20199;-82
2022/05/02 02:50:00;;;;;;;10.43;10.13;;;10.80;99.90;;;;;;6199798;23;20219;-82
2022/05/02 02:52:29;;;;;;;10.47;10.17;;;10.80;99.90;;;;;;6212922;23;20191;-81
2022/05/02 02:54:59;;;;;;;10.47;10.17;;;10.70;99.90;;;;;;6201397;23;20227;-82
2022/05/02 02:57:38;;;;;;;10.50;10.20;;;10.70;99.90;;;;;;6199321;23;20207;-82
2022/05/02 03:00:09;;;;;;;10.47;10.17;;;10.70;99.90;;;;;;6197776;23;20195;-82
2022/05/02 03:02:38;;;;;;;10.40;10.10;;;10.60;99.90;;;;;;6196639;23;20196;-82
2022/05/02 03:07:53;;;;;;;10.43;10.13;;;10.60;99.90;;;;;;6198517;23;20227;-82
2022/05/02 03:10:23;;;;;;;10.07;9.77;;;10.60;99.90;;;;;;6198335;23;20212;-82
2022/05/02 03:12:54;;;;;;;10.60;10.30;;;10.60;99.90;;;;;;6199262;23;20204;-82
2022/05/02 03:15:22;;;;;;;10.50;10.20;;;10.50;99.90;;;;;;6199437;23;20198;-82
2022/05/02 03:17:51;;;;;;;10.07;9.77;;;10.50;99.90;;;;;;6200100;23;20207;-82
2022/05/02 03:20:20;;;;;;;10.17;9.87;;;10.50;99.90;;;;;;6199903;23;20188;-82
2022/05/02 03:22:49;;;;;;;10.27;9.97;;;10.50;99.90;;;;;;6199208;23;20210;-82
2022/05/02 03:25:18;;;;;;;10.07;9.77;;;10.40;99.90;;;;;;6199001;23;20207;-82
2022/05/02 03:27:48;;;;;;;10.23;9.93;;;10.40;99.90;;;;;;6199341;23;20211;-81
2022/05/02 03:30:19;;;;;;;10.10;9.80;;;10.30;99.90;;;;;;6198833;23;20200;-81
2022/05/02 03:32:47;;;;;;;10.37;10.07;;;10.30;99.90;;;;;;6199943;23;20196;-82
2022/05/02 03:35:15;;;;;;;10.77;10.47;;;10.30;99.90;;;;;;6199492;23;20222;-82
2022/05/02 03:37:47;;;;;;;11.00;10.70;;;10.30;99.90;;;;;;6199501;23;20660;-82
2022/05/02 03:40:17;;;;;;;11.07;10.77;;;10.20;99.90;;;;;;6199337;23;20203;-83
2022/05/02 03:42:45;;;;;;;11.03;10.73;;;10.20;99.90;;;;;;6199484;23;20208;-83
2022/05/02 03:45:16;;;;;;;10.90;10.60;;;10.10;99.90;;;;;;6198832;23;20195;-83
2022/05/02 03:47:47;;;;;;;10.90;10.60;;;10.10;99.90;;;;;;6199125;23;20665;-83
2022/05/02 03:50:17;;;;;;;10.97;10.67;;;10.10;99.90;;;;;;6198397;23;20262;-83
2022/05/02 03:52:45;;;;;;;11.00;10.70;;;10.00;99.90;;;;;;6199207;23;20243;-83
2022/05/02 03:55:14;;;;;;;10.80;10.50;;;9.90;99.90;;;;;;6198341;23;20196;-83
2022/05/02 03:57:43;;;;;;;11.03;10.73;;;9.90;99.90;;;;;;6197707;23;20211;-83
2022/05/02 04:00:13;;;;;;;11.53;11.13;;;9.90;99.90;;;;;;6198647;23;20208;-83
2022/05/02 04:02:42;;;;;;;11.00;10.70;;;9.80;99.90;;;;;;6198991;23;20199;-82
2022/05/02 04:05:15;;;;;;;11.40;11.00;;;9.80;99.90;;;;;;6198940;23;20195;-83
2022/05/02 04:07:42;;;;;;;11.20;10.80;;;9.80;99.90;;;;;;6199203;23;20206;-83
2022/05/02 04:10:10;;;;;;;11.60;11.20;;;9.80;99.90;;;;;;6208900;23;20210;-82
2022/05/02 04:12:40;;;;;;;11.60;11.20;;;9.80;99.90;;;;;;6219156;22;20226;-83
2022/05/02 04:15:10;;;;;;;11.37;10.97;;;9.70;99.90;;;;;;6219380;22;20176;-82
2022/05/02 04:17:39;;;;;;;11.80;11.40;;;9.70;99.90;;;;;;6219516;22;20202;-83
2022/05/02 04:20:11;;;;;;;11.60;11.20;;;9.70;99.90;;;;;;6207772;23;20202;-83
2022/05/02 04:22:41;;;;;;;11.50;11.10;;;9.70;99.90;;;;;;6198392;23;20198;-83
2022/05/02 04:25:10;;;;;;;11.50;11.10;;;9.70;99.90;;;;;;6195948;23;20242;-83
2022/05/02 04:27:38;;;;;;;11.50;11.10;;;9.70;99.90;;;;;;6196918;23;20203;-83
2022/05/02 04:30:07;;;;;;;11.63;11.23;;;9.70;99.90;;;;;;6196300;23;20233;-83
2022/05/02 04:32:35;;;;;;;11.20;10.80;;;9.70;99.90;;;;;;6196675;23;20211;-83
2022/05/02 04:35:05;;;;;;;11.43;11.03;;;9.70;99.90;;;;;;6196827;23;20222;-83
2022/05/02 04:37:36;;;;;;;11.33;10.93;;;9.70;99.90;;;;;;6196620;23;20218;-83
2022/05/02 04:40:05;;;;;;;11.50;11.10;;;9.70;99.90;;;;;;6197513;23;20230;-83
2022/05/02 04:42:33;;;;;;;11.37;10.97;;;9.70;99.90;;;;;;6195501;23;20203;-83
2022/05/02 04:45:02;;;;;;;11.50;11.10;;;9.70;99.90;;;;;;6196240;23;20195;-82
2022/05/02 04:47:32;;;;;;;11.73;11.33;;;9.70;99.90;;;;;;6196369;23;20199;-83
2022/05/02 04:50:01;;;;;;;11.33;10.93;;;9.70;99.90;;;;;;6205045;23;20207;-83
2022/05/02 04:52:30;;;;;;;11.27;10.87;;;9.70;99.90;;;;;;6203137;23;20219;-83
2022/05/02 04:55:05;;;;;;;11.50;11.10;;;9.70;99.90;;;;;;6200532;23;20270;-83
2022/05/02 05:00:17;;;;;;;11.80;11.40;;;9.70;99.90;;;;;;6195438;23;20192;-82
2022/05/02 05:02:45;;;;;;;11.20;10.80;;;9.70;99.90;;;;;;6197473;23;20290;-83
2022/05/02 05:05:16;;;;;;;11.70;11.30;;;9.80;99.90;;;;;;6196905;23;20207;-83
2022/05/02 05:07:46;;;;;;;11.30;10.90;;;9.80;99.90;;;;;;6197846;23;20199;-83
2022/05/02 05:10:16;;;;;;;11.30;10.90;;;9.90;99.90;;;;;;6196689;23;20275;-83
2022/05/02 05:13:01;;;;;;;11.23;10.87;;;10.00;99.90;;;;;;6197140;23;20210;-83
2022/05/02 05:19:04;;;;;;;11.80;11.40;;;10.10;99.90;;;;;;6197516;23;20231;-83
2022/05/02 05:21:49;;;;;;;11.80;11.40;;;10.20;99.90;;;;;;6196814;23;20202;-83
2022/05/02 05:25:04;;;;;;;11.50;11.10;;;10.30;99.90;;;;;;6196915;23;20231;-83
2022/05/02 05:27:49;;;;;;;11.30;10.90;;;10.40;99.90;;;;;;6197269;23;20201;-83
2022/05/02 05:30:21;;;;;;;11.63;11.23;;;10.50;99.90;;;;;;6197078;23;20206;-83
2022/05/02 05:33:00;;;;;;;11.80;11.40;;;10.50;99.90;;;;;;6196558;23;20287;-83
2022/05/02 05:35:42;;;;;;;11.33;11.03;;;10.50;99.90;;;;;;6197346;23;20199;-83
2022/05/02 05:38:15;;;;;;;11.20;10.90;;;10.60;99.90;;;;;;6197657;23;20211;-83
2022/05/02 05:40:47;;;;;;;11.23;10.93;;;10.70;99.90;;;;;;6199610;23;20200;-83
2022/05/02 05:43:51;;;;;;;11.53;11.17;;;10.80;99.90;;;;;;6198285;23;20188;-83
2022/05/02 05:47:14;;;;;;;11.17;10.87;;;10.90;99.90;;;;;;6197940;23;20204;-83
2022/05/02 05:49:58;;;;;;;10.80;10.50;;;11.00;99.90;;;;;;6150808;23;20199;-83
2022/05/02 05:52:46;;;;;;;10.77;10.47;;;11.20;99.90;;;;;;6197050;23;20195;-83
2022/05/02 05:55:24;;;;;;;11.10;10.80;;;11.30;99.90;;;;;;6197896;23;20191;-83
2022/05/02 05:58:03;;;;;;;10.93;10.63;;;11.40;99.90;;;;;;6197784;23;20214;-83
2022/05/02 06:00:50;;;;;;;10.90;10.60;;;11.60;99.90;;;;;;6198642;23;20188;-82
2022/05/02 06:03:28;;;;;;;10.77;10.47;;;11.60;99.90;;;;;;6199042;23;20661;-83
2022/05/02 06:05:57;;;;;;;10.87;10.57;;;11.70;99.90;;;;;;6198589;23;20202;-82
2022/05/02 06:08:27;;;;;;;10.50;10.20;;;11.70;99.90;;;;;;6198845;23;20203;-82
2022/05/02 06:11:00;;;;;;;10.20;9.90;;;11.80;99.90;;;;;;6198744;23;20324;-83
2022/05/02 06:13:34;;;;;;;10.80;10.50;;;11.90;99.90;;;;;;6199561;23;20195;-82
2022/05/02 06:19:11;;;;;;;10.73;10.43;;;12.10;99.90;;;;;;6198694;23;20365;-83
2022/05/02 06:21:44;;;;;;;10.53;10.23;;;12.30;99.90;;;;;;6198286;23;20262;-83
2022/05/02 06:24:15;;;;;;;10.37;10.07;;;12.40;99.90;;;;;;6198277;23;20215;-83
2022/05/02 06:26:46;;;;;;;10.40;10.10;;;12.50;99.90;;;;;;6197640;23;20211;-83
2022/05/02 06:29:16;;;;;;;10.50;10.20;;;12.50;99.90;;;;;;6199127;23;20220;-83
2022/05/02 06:34:31;;;;;;;10.60;10.30;;;12.80;99.90;;;;;;6196786;23;20230;-83
2022/05/02 06:37:27;;;;;;;10.43;10.13;;;12.80;99.90;;;;;;6197867;23;20214;-81
2022/05/02 06:40:08;;;;;;;10.30;10.00;;;12.90;99.90;;;;;;6193084;23;20210;-81
2022/05/02 06:42:43;;;;;;;10.50;10.20;;;13.10;99.90;;;;;;6198321;23;20188;-84
2022/05/02 06:45:24;;;;;;;10.50;10.20;;;13.20;99.90;;;;;;6200750;23;20204;-83
2022/05/02 06:48:18;;;;;;;10.83;10.53;;;13.40;99.90;;;;;;6203578;23;20209;-83
2022/05/02 06:50:49;;;;;;;10.37;10.07;;;13.50;99.90;;;;;;6204556;23;20210;-83
2022/05/02 06:53:51;;;;;;;10.73;10.43;;;13.60;99.90;;;;;;6206025;23;20220;-83
2022/05/02 06:58:58;;;;;;;10.70;10.40;;;13.90;99.90;;;;;;6141397;23;20200;-80
2022/05/02 07:01:39;;;;;;;10.23;9.93;;;13.90;99.90;;;;;;6142130;23;20201;-81
2022/05/02 07:04:34;;;;;;;10.40;10.10;;;14.00;99.90;;;;;;6141419;23;20189;-81
2022/05/02 07:10:25;;;;;;;10.27;9.97;;;14.30;99.90;;;;;;6168119;23;20204;-81
2022/05/02 07:13:13;;;;;;;10.50;10.20;;;14.50;99.90;;;;;;6171836;23;20200;-82
2022/05/02 07:15:50;;;;;;;11.00;10.70;;;14.50;99.90;;;;;;6172260;23;20193;-81
2022/05/02 07:18:45;;;;;;;11.03;10.73;;;14.50;99.90;;;;;;6171968;23;20200;-82
2022/05/02 07:21:33;;;;;;;10.55;10.25;;;14.70;99.90;;;;;;6180701;23;20212;-81
2022/05/02 07:24:19;;;;;;;10.88;10.57;;;14.80;99.90;;;;;;6184920;23;20181;-81
2022/05/02 07:26:59;;;;;;;11.07;10.77;;;15.00;99.90;;;;;;6178346;23;20205;-82
2022/05/02 07:29:28;;;;;;;11.10;10.80;;;15.10;99.90;;;;;;6173426;23;20192;-80
2022/05/02 07:31:57;;;;;;;10.63;10.32;;;15.20;99.90;;;;;;6173753;23;20208;-81
2022/05/02 07:34:29;;;;;;;10.88;10.57;;;15.30;99.90;;;;;;6171544;23;20214;-82
2022/05/02 07:37:00;;;;;;;10.98;10.68;;;15.30;99.90;;;;;;6172273;23;20196;-81
2022/05/02 07:39:36;;;;;;;10.82;10.52;;;15.20;99.90;;;;;;6171118;23;20269;-82
2022/05/02 07:42:07;;;;;;;10.93;10.63;;;15.10;99.90;;;;;;6171859;23;20192;-81
2022/05/02 07:44:37;;;;;;;10.63;10.32;;;15.00;99.90;;;;;;6171581;23;20207;-82
2022/05/02 07:47:06;;;;;;;10.75;10.45;;;15.20;99.90;;;;;;6172673;23;20196;-81
2022/05/02 07:49:35;;;;;;;10.50;10.20;;;15.40;99.90;;;;;;6172137;23;20227;-81
2022/05/02 07:52:12;;;;;;;10.85;10.55;;;15.50;99.90;;;;;;6170613;23;20203;-82
2022/05/02 07:54:43;;;;;;;11.10;10.80;;;15.60;99.90;;;;;;6173325;23;20199;-82
2022/05/02 07:57:13;;;;;;;11.10;10.80;;;15.70;99.90;;;;;;6182026;23;20203;-82
2022/05/02 07:59:42;;;;;;;11.10;10.80;;;15.80;99.90;;;;;;6201972;23;20204;-81
2022/05/02 08:02:10;;;;;;;11.15;10.85;;;15.90;99.90;;;;;;6202097;23;20191;-82
2022/05/02 08:04:40;;;;;;;11.07;10.77;;;16.00;99.90;;;;;;6203240;23;20192;-81
2022/05/02 08:07:17;;;;;;;11.18;10.88;;;16.10;99.90;;;;;;6203638;23;20272;-82
2022/05/02 08:10:32;;;;;;;11.10;10.80;;;16.20;99.90;;;;;;6202523;23;20199;-82
2022/05/02 08:13:10;;;;;;;10.80;10.50;;;16.40;99.90;;;;;;6203355;23;20211;-81
2022/05/02 08:15:49;;;;;;;10.95;10.65;;;16.40;99.90;;;;;;6200487;23;20175;-82
2022/05/02 08:18:52;;;;;;;10.88;10.57;;;16.50;99.90;;;;;;6201480;23;20200;-82
2022/05/02 08:21:31;;;;;;;11.00;10.70;;;16.70;99.90;;;;;;6201045;23;20191;-82
2022/05/02 08:27:39;;;;;;;10.75;10.45;;;17.20;99.90;;;;;;6202317;23;20251;-81
2022/05/02 08:30:11;;;;;;;10.70;10.40;;;17.20;99.90;;;;;;6202170;23;20195;-82
2022/05/02 08:32:47;;;;;;;10.70;10.40;;;17.40;99.90;;;;;;6209472;23;20214;-81
2022/05/02 08:35:27;;;;;;;11.07;10.77;;;17.60;99.90;;;;;;6211727;23;20188;-82
2022/05/02 08:38:48;;;;;;;10.73;10.43;;;17.90;99.90;;;;;;6202735;23;20207;-81
2022/05/02 08:42:28;;;;;;;11.02;10.73;;;18.30;99.90;;;;;;6199030;23;20274;-82
2022/05/02 08:45:34;;;;;;;11.10;10.80;;;18.50;99.90;;;;;;6195087;23;20207;-82
2022/05/02 08:48:45;;;;;;;11.00;10.70;;;18.30;99.90;;;;;;6200189;23;20242;-81
2022/05/02 08:52:25;;;;;;;10.77;10.48;;;18.70;99.90;;;;;;6200902;23;20234;-81
2022/05/02 08:55:12;;;;;;;10.70;10.40;;;18.80;99.90;;;;;;6079905;23;20222;-82
2022/05/02 08:58:25;;;;;;;10.60;10.30;;;19.20;99.90;;;;;;6079542;23;20239;-82
2022/05/02 09:01:22;;;;;;;10.35;10.05;;;19.30;99.90;;;;;;6200963;23;20196;-82
2022/05/02 09:05:00;;;;;;;10.48;10.18;;;19.10;99.90;;;;;;6201466;23;20200;-82
2022/05/02 09:08:23;;;;;;;10.30;10.00;;;19.00;99.90;;;;;;6201875;23;20206;-82
2022/05/02 09:11:31;;;;;;;10.48;10.18;;;19.00;99.90;;;;;;6201646;23;20195;-81
2022/05/02 09:14:50;;;;;;;11.00;10.70;;;19.10;99.90;;;;;;6200917;23;20192;-81
2022/05/02 09:18:20;;;;;;;11.02;10.73;;;19.40;99.90;;;;;;6175179;23;20212;-82
2022/05/02 09:20:58;;;;;;;11.13;10.82;;;19.80;99.90;;;;;;6199817;23;20254;-82
2022/05/02 09:27:35;;;;;;;11.00;10.70;;;20.80;99.90;;;;;;6197600;23;20195;-81
2022/05/02 09:30:58;;;;;;;11.20;10.90;;;21.10;99.90;;;;;;6204025;23;20215;-82
2022/05/02 09:34:18;;;;;;;11.38;11.07;;;21.30;99.90;;;;;;6171715;23;20210;-82
2022/05/02 09:37:09;;;;;;;11.55;11.15;;;21.50;99.90;;;;;;6198344;23;20214;-82
2022/05/02 09:39:47;;;;;;;11.18;10.88;;;21.10;99.90;;;;;;6201175;23;20254;-82
2022/05/02 09:42:42;;;;;;;11.63;11.23;;;20.80;99.90;;;;;;6200170;23;20206;-82
2022/05/02 09:52:25;;;;;;;11.40;11.10;;;20.10;99.90;;;;;;6200105;23;20866;-81
2022/05/02 09:59:08;;;;;;;11.55;11.18;;;19.20;99.90;;;;;;6200644;23;20203;-81
2022/05/02 10:01:45;;;;;;;11.45;11.05;;;19.20;99.90;;;;;;6198629;23;20214;-83
2022/05/02 10:04:31;;;;;;;11.20;10.90;;;19.50;99.90;;;;;;6198988;23;20230;-82
2022/05/02 10:07:11;;;;;;;11.07;10.77;;;19.90;99.90;;;;;;6199402;23;20219;-82
2022/05/02 10:10:06;;;;;;;11.45;11.15;;;20.20;99.90;;;;;;6199157;23;20199;-82
2022/05/02 10:12:54;;;;;;;11.15;10.85;;;20.40;99.90;;;;;;6199532;23;20199;-82
2022/05/02 10:15:57;;;;;;;10.70;10.40;;;20.50;99.90;;;;;;6198995;23;20195;-81
2022/05/02 10:18:53;;;;;;;10.50;10.20;;;20.50;99.90;;;;;;6199812;23;20214;-81
2022/05/02 10:21:40;;;;;;;10.43;10.13;;;20.40;99.90;;;;;;6198239;23;20199;-82
2022/05/02 10:24:45;;;;;;;10.45;10.15;;;20.60;99.90;;;;;;6202722;23;20191;-82
2022/05/02 10:27:25;;;;;;;10.50;10.20;;;20.50;99.90;;;;;;6203504;23;20209;-82
2022/05/02 10:30:12;;;;;;;11.00;10.70;;;20.40;99.90;;;;;;6202569;23;20191;-81
2022/05/02 10:33:06;;;;;;;10.70;10.40;;;20.40;99.90;;;;;;6201484;23;20210;-82
2022/05/02 10:35:37;;;;;;;10.90;10.60;;;20.30;99.90;;;;;;6197839;23;20289;-82
2022/05/02 10:38:06;;;;;;;10.73;10.43;;;20.00;99.90;;;;;;6199578;23;20212;-82
2022/05/02 10:40:43;;;;;;;10.80;10.50;;;19.90;99.90;;;;;;6199916;23;20193;-81
2022/05/02 10:43:15;;;;;;;10.85;10.55;;;19.60;99.90;;;;;;6201108;23;20198;-80
2022/05/02 10:45:43;;;;;;;10.85;10.55;;;19.40;99.90;;;;;;6200424;23;20191;-80
2022/05/02 10:48:40;;;;;;;10.88;10.57;;;19.50;99.90;;;;;;6200925;23;20267;-81
2022/05/02 10:51:15;;;;;;;11.00;10.70;;;19.40;99.90;;;;;;6206277;23;20184;-83
2022/05/02 10:54:11;;;;;;;11.02;10.73;;;19.30;99.90;;;;;;6213694;23;20251;-81
2022/05/02 10:56:51;;;;;;;10.88;10.57;;;19.30;99.90;;;;;;6200845;23;20215;-81
2022/05/02 10:59:27;;;;;;;10.88;10.57;;;19.40;99.90;;;;;;6201276;23;20203;-81
2022/05/02 11:02:52;;;;;;;10.95;10.65;;;19.50;99.90;;;;;;6201391;23;20187;-81
2022/05/02 11:05:28;;;;;;;10.93;10.63;;;19.80;99.90;;;;;;6200670;23;20195;-82
2022/05/02 11:08:15;;;;;;;11.18;10.88;;;20.40;99.90;;;;;;6200842;23;20238;-81
2022/05/02 11:10:55;;;;;;;11.07;10.77;;;20.90;99.90;;;;;;6200708;23;20196;-81
2022/05/02 11:13:34;;;;;;;11.27;10.98;;;21.10;99.90;;;;;;6201638;23;20200;-81
2022/05/02 11:16:18;;;;;;;11.30;11.00;;;21.50;99.90;;;;;;6201993;23;20187;-82
2022/05/02 11:22:13;;;;;;;11.10;10.80;;;21.90;99.90;;;;;;6214564;23;20183;-80
2022/05/02 11:24:49;;;;;;;11.32;11.02;;;21.60;99.90;;;;;;6216510;23;20206;-80
2022/05/02 11:27:46;;;;;;;10.57;10.27;;;21.40;99.90;;;;;;6205567;23;20199;-81
2022/05/02 11:30:23;;;;;;;10.57;10.27;;;21.30;99.90;;;;;;6204284;23;20207;-81
2022/05/02 11:33:20;;;;;;;11.10;10.80;;;21.40;99.90;;;;;;6203334;23;20207;-81
2022/05/02 11:35:50;;;;;;;11.05;10.75;;;21.60;99.90;;;;;;6203157;23;20203;-80
2022/05/02 11:38:37;;;;;;;11.02;10.73;;;21.50;99.90;;;;;;6201848;23;20203;-81
2022/05/02 11:41:15;;;;;;;11.13;10.82;;;21.60;99.90;;;;;;6202157;23;20276;-81
2022/05/02 11:43:45;;;;;;;11.20;10.90;;;22.10;99.90;;;;;;6205326;23;20203;-81
2022/05/02 11:46:33;;;;;;;10.88;10.57;;;22.60;99.90;;;;;;6213258;23;20199;-81
2022/05/02 11:49:18;;;;;;;10.88;10.57;;;22.90;99.90;;;;;;6215926;23;20895;-81
2022/05/02 11:51:50;;;;;;;11.05;10.75;;;22.70;99.90;;;;;;6205095;23;20258;-81
2022/05/02 11:54:47;;;;;;;10.70;10.40;;;22.40;99.90;;;;;;6204018;23;20223;-82
2022/05/02 11:57:22;;;;;;;11.00;10.70;;;22.40;99.90;;;;;;6201311;23;20199;-82
2022/05/02 12:00:11;;;;;;;10.77;10.48;;;22.30;99.90;;;;;;6201875;23;20195;-82
2022/05/02 12:02:58;;;;;;;11.20;10.90;;;21.90;99.90;;;;;;6201318;23;20199;-82
2022/05/02 12:05:35;;;;;;;10.93;10.63;;;21.80;99.90;;;;;;6202537;23;20188;-82
2022/05/02 12:08:07;;;;;;;10.90;10.60;;;21.70;99.90;;;;;;6203028;23;20204;-81
2022/05/02 12:11:08;;;;;;;10.85;10.55;;;21.70;99.90;;;;;;6202645;23;20200;-82
2022/05/02 12:13:38;;;;;;;11.10;10.80;;;21.70;99.90;;;;;;6202595;23;20314;-82
2022/05/02 12:16:18;;;;;;;11.38;11.07;;;21.40;99.90;;;;;;6203103;23;20195;-82
2022/05/02 12:18:48;;;;;;;10.88;10.57;;;21.60;99.90;;;;;;6202533;23;20199;-82
2022/05/02 12:21:24;;;;;;;10.70;10.40;;;21.90;99.90;;;;;;6202231;23;20188;-82
2022/05/02 12:23:54;;;;;;;11.05;10.75;;;21.90;99.90;;;;;;6203533;23;20191;-82
2022/05/02 12:29:19;;;;;;;10.68;10.38;;;21.30;99.90;;;;;;6206144;23;20231;-82
2022/05/02 12:31:57;;;;;;;10.65;10.35;;;21.00;99.90;;;;;;6202387;23;20214;-82
2022/05/02 12:34:36;;;;;;;10.80;10.50;;;20.70;99.90;;;;;;6200974;23;20195;-82
2022/05/02 12:37:20;;;;;;;10.05;9.75;;;20.10;99.90;;;;;;6200348;23;20258;-82
2022/05/02 12:40:00;;;;;;;10.77;10.48;;;19.60;99.90;;;;;;6201998;23;20187;-82
2022/05/02 12:45:26;;;;;;;10.30;10.00;;;19.20;99.90;;;;;;6200850;23;20199;-82
2022/05/02 12:47:57;;;;;;;10.95;10.65;;;19.20;99.90;;;;;;6200928;23;20274;-82
2022/05/02 12:50:27;;;;;;;10.63;10.32;;;19.50;99.90;;;;;;6200330;23;20192;-82
2022/05/02 12:53:05;;;;;;;10.70;10.40;;;20.20;99.90;;;;;;6201038;23;20203;-83
2022/05/02 13:01:06;;;;;;;10.52;10.23;;;21.20;99.90;;;;;;6201725;23;20196;-83
2022/05/02 13:03:35;;;;;;;10.35;10.05;;;21.30;99.90;;;;;;6206397;23;20250;-82
2022/05/02 13:06:13;;;;;;;10.32;10.02;;;21.70;99.90;;;;;;6203617;23;20207;-82
2022/05/02 13:08:42;;;;;;;10.60;10.30;;;21.80;99.90;;;;;;6200648;23;20195;-83
2022/05/02 13:11:12;;;;;;;10.60;10.30;;;21.90;99.90;;;;;;6199518;23;20199;-83
2022/05/02 13:13:48;;;;;;;10.30;10.00;;;22.60;99.90;;;;;;6198967;23;20203;-83
2022/05/02 13:16:29;;;;;;;10.40;10.10;;;23.20;99.90;;;;;;6198227;23;20198;-83
2022/05/02 13:19:00;;;;;;;10.30;10.00;;;23.70;99.90;;;;;;6199694;23;20227;-83
2022/05/02 13:21:29;;;;;;;10.57;10.27;;;24.10;99.90;;;;;;6199924;23;20283;-83
2022/05/02 13:24:00;;;;;;;11.10;10.80;;;24.20;99.90;;;;;;6199296;23;20357;-83
2022/05/02 13:27:02;;;;;;;10.73;10.43;;;23.80;99.90;;;;;;6199639;23;20251;-82
2022/05/02 13:30:08;;;;;;;10.30;10.00;;;23.20;99.90;;;;;;6199132;23;20199;-81
2022/05/02 13:32:41;;;;;;;10.50;10.20;;;22.40;99.90;;;;;;6169082;23;20239;-82
2022/05/02 13:35:15;;;;;;;10.50;10.20;;;22.00;99.90;;;;;;6170018;23;20227;-82
2022/05/02 13:38:10;;;;;;;10.70;10.40;;;21.60;99.90;;;;;;6170187;23;20202;-83
2022/05/02 13:41:09;;;;;;;10.60;10.30;;;21.30;99.90;;;;;;6172827;23;20184;-82
2022/05/02 13:43:46;;;;;;;10.55;10.25;;;21.00;99.90;;;;;;6170318;23;20229;-83
2022/05/02 13:46:28;;;;;;;10.75;10.45;;;20.70;99.90;;;;;;6169337;23;20202;-82
2022/05/02 13:49:06;;;;;;;10.70;10.40;;;20.70;99.90;;;;;;6169857;23;20208;-83
2022/05/02 13:51:39;;;;;;;10.80;10.50;;;20.70;99.90;;;;;;6169165;23;20214;-83
2022/05/02 13:54:27;;;;;;;10.60;10.30;;;20.90;99.90;;;;;;6170056;23;20192;-82
2022/05/02 13:57:07;;;;;;;10.10;9.80;;;21.10;99.90;;;;;;6170919;23;20228;-83
2022/05/02 13:59:50;;;;;;;10.25;9.95;;;21.50;99.90;;;;;;6172837;23;20263;-84
2022/05/02 14:02:47;;;;;;;10.27;9.98;;;21.70;99.90;;;;;;6170597;23;20224;-82
2022/05/02 14:05:25;;;;;;;10.35;10.05;;;21.80;99.90;;;;;;6171958;23;20197;-83
2022/05/02 14:07:54;;;;;;;10.60;10.30;;;22.10;99.90;;;;;;6171278;23;20231;-82
2022/05/02 14:10:24;;;;;;;10.40;10.10;;;22.70;99.90;;;;;;6170461;23;20195;-82
2022/05/02 14:12:53;;;;;;;10.90;10.60;;;23.30;99.90;;;;;;6170684;23;20204;-83
2022/05/02 14:15:31;;;;;;;10.95;10.65;;;23.60;99.90;;;;;;6171346;23;20263;-83
2022/05/02 14:18:14;;;;;;;10.20;9.90;;;23.90;99.90;;;;;;6173021;23;20203;-83
2022/05/02 14:20:42;;;;;;;10.50;10.20;;;24.00;99.90;;;;;;6173379;23;20207;-83
2022/05/02 14:23:11;;;;;;;10.75;10.45;;;24.30;99.90;;;;;;6173294;23;20267;-82
2022/05/02 14:25:42;;;;;;;10.55;10.25;;;25.00;99.90;;;;;;6176285;23;20208;-82
2022/05/02 14:28:16;;;;;;;10.65;10.35;;;25.50;99.90;;;;;;6174519;23;20206;-82